Portada
METAR-TAF:

METAR-TAF

Aeropuertos :

Aeropuerto Internacional de Chengdú-Shuangliu

Chengdu, China

latitud: 30-40N, longitud: 104-01E, altitud: 508 m

Observación

El informe se hizo hace 29 minutos, a las 03:00 UTC
Viento calma
Temperatura 17°C
Humedad 88%
Presión 1023 hPa
Visibilidad: 3500 m
Escasas nubes a una altura de 4000 ft
neblina

METAR: ZUUU 220300Z 00000MPS 3500 BR FEW040 17/15 Q1023 NOSIG

Hora: 11:29 (03:29 UTC)

Pronóstico

El informe se hizo hace 7 horas y 27 minutos, a las 20:02 UTC
Pronóstico válido del 22 a las 00 UTC al 22 a las 24 UTC
Viento 6 kt del norte-noreste
Visibilidad: 3500 m
Nubes dispersas a una altura de 4000 ft
neblina
Temporalmente
del 22 a las 10 UTC al 22 a las 14 UTC
lluvia ligera

TAF: ZUUU 212002Z 2200/2224 02003MPS 3500 BR SCT040 TX19/2207Z TN14/2222Z TEMPO 2210/2214 -RA

Observaciones y pronósticos meteorológicos de más de 4000 aeropuertos (mensajes METAR y TAF).

Los puntos amarillos y rojos representan las estaciones disponibles.

Ponga el ratón en el punto deseado para ver el nombre de la estación.

Haga clic para ver las observaciones y los pronósticos meteorológicos.

Para cambiar el mapa : haga clic en los botones verdes con una cruz de color negro para hacer un zoom, en el botón verde con un guión para alejar o en las flechas verdes para mapas adyacentes.


METAR-TAF: